sensor_id;sensor_type;location;lat;lon;timestamp;pressure;altitude;pressure_sealevel;temperature;humidity
57574;BME280;68988;49.000;21.242;2023-05-22T00:00:30;98731.09;;;23.13;43.88
57574;BME280;68988;49.000;21.242;2023-05-22T00:03:00;98727.63;;;23.13;43.75
57574;BME280;68988;49.000;21.242;2023-05-22T00:05:27;98731.38;;;23.17;43.84
57574;BME280;68988;49.000;21.242;2023-05-22T00:07:53;98722.28;;;23.13;44.06
57574;BME280;68988;49.000;21.242;2023-05-22T00:10:18;98721.47;;;23.12;44.06
57574;BME280;68988;49.000;21.242;2023-05-22T00:12:43;98729.47;;;23.12;43.91
57574;BME280;68988;49.000;21.242;2023-05-22T00:15:10;98724.41;;;23.11;43.92
57574;BME280;68988;49.000;21.242;2023-05-22T00:17:35;98721.72;;;23.11;43.89
57574;BME280;68988;49.000;21.242;2023-05-22T00:20:01;98721.72;;;23.11;43.93
57574;BME280;68988;49.000;21.242;2023-05-22T00:22:33;98711.84;;;23.11;44.02
57574;BME280;68988;49.000;21.242;2023-05-22T00:25:05;98715.56;;;23.10;43.97
57574;BME280;68988;49.000;21.242;2023-05-22T00:27:31;98719.88;;;23.11;43.97
57574;BME280;68988;49.000;21.242;2023-05-22T00:29:57;98711.28;;;23.09;44.02
57574;BME280;68988;49.000;21.242;2023-05-22T00:32:24;98713.97;;;23.09;43.89
57574;BME280;68988;49.000;21.242;2023-05-22T00:34:50;98709.44;;;23.10;44.08
57574;BME280;68988;49.000;21.242;2023-05-22T00:37:15;98713.69;;;23.11;43.94
57574;BME280;68988;49.000;21.242;2023-05-22T00:39:40;98709.44;;;23.10;43.97
57574;BME280;68988;49.000;21.242;2023-05-22T00:42:06;98709.44;;;23.10;43.95
57574;BME280;68988;49.000;21.242;2023-05-22T00:44:31;98710.47;;;23.09;43.83
57574;BME280;68988;49.000;21.242;2023-05-22T00:46:57;98713.16;;;23.09;44.02
57574;BME280;68988;49.000;21.242;2023-05-22T00:49:22;98707.81;;;23.09;43.89
57574;BME280;68988;49.000;21.242;2023-05-22T00:51:48;98709.44;;;23.10;43.87
57574;BME280;68988;49.000;21.242;2023-05-22T00:54:14;98712.59;;;23.06;43.96
57574;BME280;68988;49.000;21.242;2023-05-22T00:56:40;98709.66;;;23.08;44.11
57574;BME280;68988;49.000;21.242;2023-05-22T00:59:06;98708.84;;;23.07;43.88
57574;BME280;68988;49.000;21.242;2023-05-22T01:01:32;98710.72;;;23.07;43.63
57574;BME280;68988;49.000;21.242;2023-05-22T01:04:04;98713.16;;;23.09;43.97
57574;BME280;68988;49.000;21.242;2023-05-22T01:06:32;98710.97;;;23.05;43.76
57574;BME280;68988;49.000;21.242;2023-05-22T01:08:57;98711.50;;;23.07;43.89
57574;BME280;68988;49.000;21.242;2023-05-22T01:16:51;98709.97;;;23.12;44.01
57574;BME280;68988;49.000;21.242;2023-05-22T01:22:36;98711.03;;;23.11;43.92
57574;BME280;68988;49.000;21.242;2023-05-22T01:32:59;98721.41;;;23.02;44.01
57574;BME280;68988;49.000;21.242;2023-05-22T01:35:27;98709.06;;;23.01;43.98
57574;BME280;68988;49.000;21.242;2023-05-22T01:37:55;98720.56;;;23.01;44.15
57574;BME280;68988;49.000;21.242;2023-05-22T01:40:22;98710.69;;;23.02;43.92
57574;BME280;68988;49.000;21.242;2023-05-22T01:42:48;98716.84;;;23.02;44.03
57574;BME280;68988;49.000;21.242;2023-05-22T01:45:13;98714.16;;;23.02;43.97
57574;BME280;68988;49.000;21.242;2023-05-22T01:47:39;98717.63;;;23.03;43.91
57574;BME280;68988;49.000;21.242;2023-05-22T01:50:05;98722.19;;;23.02;44.31
57574;BME280;68988;49.000;21.242;2023-05-22T01:52:42;98717.94;;;23.06;43.96
57574;BME280;68988;49.000;21.242;2023-05-22T01:55:16;98720.88;;;23.05;43.86
57574;BME280;68988;49.000;21.242;2023-05-22T01:58:05;98713.38;;;23.07;43.77
57574;BME280;68988;49.000;21.242;2023-05-22T02:00:34;98706.66;;;22.99;43.97
57574;BME280;68988;49.000;21.242;2023-05-22T02:03:05;98713.13;;;23.03;43.81
57574;BME280;68988;49.000;21.242;2023-05-22T02:05:32;98710.38;;;22.98;44.04
57574;BME280;68988;49.000;21.242;2023-05-22T02:08:00;98706.66;;;22.99;44.33
57574;BME280;68988;49.000;21.242;2023-05-22T02:10:27;98710.97;;;23.00;43.99
57574;BME280;68988;49.000;21.242;2023-05-22T02:12:53;98708.81;;;22.97;43.85
57574;BME280;68988;49.000;21.242;2023-05-22T02:15:20;98704.25;;;22.98;43.98
57574;BME280;68988;49.000;21.242;2023-05-22T02:17:45;98714.41;;;23.01;43.79
57574;BME280;68988;49.000;21.242;2023-05-22T02:20:14;98705.88;;;22.99;43.89
57574;BME280;68988;49.000;21.242;2023-05-22T02:22:44;98708.03;;;23.02;43.76
57574;BME280;68988;49.000;21.242;2023-05-22T02:25:11;98707.47;;;23.00;43.86
57574;BME280;68988;49.000;21.242;2023-05-22T02:27:42;98705.88;;;22.99;43.95
57574;BME280;68988;49.000;21.242;2023-05-22T02:30:09;98709.59;;;22.98;43.87
57574;BME280;68988;49.000;21.242;2023-05-22T02:32:35;98703.44;;;22.97;43.91
57574;BME280;68988;49.000;21.242;2023-05-22T02:35:01;98699.94;;;22.97;44.00
57574;BME280;68988;49.000;21.242;2023-05-22T02:37:27;98701.81;;;22.96;44.00
57574;BME280;68988;49.000;21.242;2023-05-22T02:39:52;98705.03;;;22.98;43.93
57574;BME280;68988;49.000;21.242;2023-05-22T02:42:18;98699.69;;;22.98;44.00
57574;BME280;68988;49.000;21.242;2023-05-22T02:44:43;98700.78;;;22.97;43.88
57574;BME280;68988;49.000;21.242;2023-05-22T02:47:08;98707.19;;;22.96;43.84
57574;BME280;68988;49.000;21.242;2023-05-22T02:49:34;98696.47;;;22.96;43.97
57574;BME280;68988;49.000;21.242;2023-05-22T02:51:59;98696.47;;;22.96;43.97
57574;BME280;68988;49.000;21.242;2023-05-22T02:54:25;98691.13;;;22.96;44.08
57574;BME280;68988;49.000;21.242;2023-05-22T02:56:50;98688.47;;;22.96;43.94
57574;BME280;68988;49.000;21.242;2023-05-22T02:59:16;98685.00;;;22.96;43.60
57574;BME280;68988;49.000;21.242;2023-05-22T03:01:41;98684.72;;;22.97;43.81
57574;BME280;68988;49.000;21.242;2023-05-22T03:04:08;98692.75;;;22.97;43.97
57574;BME280;68988;49.000;21.242;2023-05-22T03:06:34;98688.19;;;22.98;43.75
57574;BME280;68988;49.000;21.242;2023-05-22T03:09:01;98691.94;;;22.97;43.74
57574;BME280;68988;49.000;21.242;2023-05-22T03:11:29;98696.22;;;22.98;43.77
57574;BME280;68988;49.000;21.242;2023-05-22T03:13:54;98687.94;;;22.99;43.84
57574;BME280;68988;49.000;21.242;2023-05-22T03:16:20;98682.88;;;23.03;43.72
57574;BME280;68988;49.000;21.242;2023-05-22T03:18:45;98687.16;;;22.99;43.82
57574;BME280;68988;49.000;21.242;2023-05-22T03:21:10;98689.56;;;23.00;43.74
57574;BME280;68988;49.000;21.242;2023-05-22T03:23:36;98699.16;;;23.01;43.76
57574;BME280;68988;49.000;21.242;2023-05-22T03:26:01;98703.22;;;23.04;43.73
57574;BME280;68988;49.000;21.242;2023-05-22T03:28:26;98689.56;;;23.05;43.84
57574;BME280;68988;49.000;21.242;2023-05-22T03:30:52;98695.22;;;23.09;43.64
57574;BME280;68988;49.000;21.242;2023-05-22T03:33:17;98699.28;;;23.12;43.61
57574;BME280;68988;49.000;21.242;2023-05-22T03:35:43;98703.03;;;23.16;43.72
57574;BME280;68988;49.000;21.242;2023-05-22T03:38:09;98699.59;;;23.20;43.52
57574;BME280;68988;49.000;21.242;2023-05-22T03:40:34;98695.81;;;23.21;43.64
57574;BME280;68988;49.000;21.242;2023-05-22T03:43:00;98697.97;;;23.24;43.43
57574;BME280;68988;49.000;21.242;2023-05-22T03:45:25;98699.34;;;23.27;43.43
57574;BME280;68988;49.000;21.242;2023-05-22T03:47:50;98703.13;;;23.31;43.37
57574;BME280;68988;49.000;21.242;2023-05-22T03:50:16;98698.56;;;23.32;43.46
57574;BME280;68988;49.000;21.242;2023-05-22T03:52:41;98695.63;;;23.33;43.27
57574;BME280;68988;49.000;21.242;2023-05-22T03:55:07;98697.25;;;23.34;43.36
57574;BME280;68988;49.000;21.242;2023-05-22T03:57:32;98697.78;;;23.36;43.46
57574;BME280;68988;49.000;21.242;2023-05-22T03:59:58;98700.47;;;23.41;43.38
57574;BME280;68988;49.000;21.242;2023-05-22T04:02:30;98695.66;;;23.44;43.34
57574;BME280;68988;49.000;21.242;2023-05-22T04:04:56;98698.09;;;23.45;43.33
57574;BME280;68988;49.000;21.242;2023-05-22T04:07:21;98694.06;;;23.48;43.35
57574;BME280;68988;49.000;21.242;2023-05-22T04:09:46;98700.78;;;23.50;43.02
57574;BME280;68988;49.000;21.242;2023-05-22T04:12:12;98698.09;;;23.55;43.36
57574;BME280;68988;49.000;21.242;2023-05-22T04:14:37;98689.00;;;23.56;43.25
57574;BME280;68988;49.000;21.242;2023-05-22T04:17:02;98694.63;;;23.60;42.97
57574;BME280;68988;49.000;21.242;2023-05-22T04:19:28;98698.13;;;23.66;43.14
57574;BME280;68988;49.000;21.242;2023-05-22T04:21:55;98689.84;;;23.67;43.00
57574;BME280;68988;49.000;21.242;2023-05-22T04:24:21;98685.59;;;23.71;42.93
57574;BME280;68988;49.000;21.242;2023-05-22T04:26:47;98685.84;;;23.75;42.96
57574;BME280;68988;49.000;21.242;2023-05-22T04:29:13;98688.00;;;23.78;42.97
57574;BME280;68988;49.000;21.242;2023-05-22T04:31:38;98685.09;;;23.85;42.75
57574;BME280;68988;49.000;21.242;2023-05-22T04:34:04;98685.13;;;23.90;42.80
57574;BME280;68988;49.000;21.242;2023-05-22T04:36:30;98676.81;;;23.91;42.36
57574;BME280;68988;49.000;21.242;2023-05-22T04:38:55;98674.13;;;23.97;42.73
57574;BME280;68988;49.000;21.242;2023-05-22T04:41:21;98678.69;;;24.01;42.58
57574;BME280;68988;49.000;21.242;2023-05-22T04:43:53;98678.94;;;24.05;42.59
57574;BME280;68988;49.000;21.242;2023-05-22T04:46:19;98673.34;;;24.11;42.62
57574;BME280;68988;49.000;21.242;2023-05-22T04:48:45;98673.34;;;24.17;42.42
57574;BME280;68988;49.000;21.242;2023-05-22T04:51:11;98669.06;;;24.21;42.20
57574;BME280;68988;49.000;21.242;2023-05-22T04:53:38;98664.78;;;24.30;42.21
57574;BME280;68988;49.000;21.242;2023-05-22T04:56:04;98667.97;;;24.37;42.13
57574;BME280;68988;49.000;21.242;2023-05-22T04:58:30;98662.63;;;24.42;41.96
57574;BME280;68988;49.000;21.242;2023-05-22T05:00:55;98661.56;;;24.48;41.88
57574;BME280;68988;49.000;21.242;2023-05-22T05:03:22;98665.53;;;24.51;41.67
57574;BME280;68988;49.000;21.242;2023-05-22T05:05:50;98656.69;;;24.56;41.99
57574;BME280;68988;49.000;21.242;2023-05-22T05:08:15;98662.09;;;24.61;41.89
57574;BME280;68988;49.000;21.242;2023-05-22T05:10:41;98666.09;;;24.69;41.52
57574;BME280;68988;49.000;21.242;2023-05-22T05:13:06;98664.19;;;24.74;41.55
57574;BME280;68988;49.000;21.242;2023-05-22T05:15:31;98664.72;;;24.92;39.49
57574;BME280;68988;49.000;21.242;2023-05-22T05:17:57;98668.22;;;24.77;40.84
57574;BME280;68988;49.000;21.242;2023-05-22T05:20:22;98668.53;;;24.70;40.94
57574;BME280;68988;49.000;21.242;2023-05-22T05:22:48;98662.09;;;24.66;41.35
57574;BME280;68988;49.000;21.242;2023-05-22T05:25:14;98659.69;;;24.59;41.37
57574;BME280;68988;49.000;21.242;2023-05-22T05:27:39;98661.25;;;24.55;41.61
57574;BME280;68988;49.000;21.242;2023-05-22T05:30:05;98662.59;;;24.53;41.75
57574;BME280;68988;49.000;21.242;2023-05-22T05:32:31;98672.28;;;24.48;41.69
57574;BME280;68988;49.000;21.242;2023-05-22T05:34:56;98666.34;;;24.46;41.68
57574;BME280;68988;49.000;21.242;2023-05-22T05:37:22;98665.31;;;24.42;40.11
57574;BME280;68988;49.000;21.242;2023-05-22T05:39:47;98665.31;;;24.42;40.25
57574;BME280;68988;49.000;21.242;2023-05-22T05:42:13;98669.56;;;24.43;39.70
57574;BME280;68988;49.000;21.242;2023-05-22T05:44:38;98659.13;;;24.42;39.03
57574;BME280;68988;49.000;21.242;2023-05-22T05:47:04;98665.03;;;24.44;39.76
57574;BME280;68988;49.000;21.242;2023-05-22T05:49:30;98659.41;;;24.40;39.55
57574;BME280;68988;49.000;21.242;2023-05-22T05:51:55;98656.19;;;24.38;38.86
57574;BME280;68988;49.000;21.242;2023-05-22T05:54:21;98652.19;;;24.41;39.31
57574;BME280;68988;49.000;21.242;2023-05-22T05:56:47;98652.97;;;24.36;38.52
57574;BME280;68988;49.000;21.242;2023-05-22T05:59:12;98658.06;;;24.38;38.76
57574;BME280;68988;49.000;21.242;2023-05-22T06:01:37;98648.13;;;24.43;39.79
57574;BME280;68988;49.000;21.242;2023-05-22T06:04:04;98643.84;;;24.47;38.89
57574;BME280;68988;49.000;21.242;2023-05-22T06:06:30;98640.91;;;24.49;39.34
57574;BME280;68988;49.000;21.242;2023-05-22T06:09:04;98645.47;;;24.48;39.42
57574;BME280;68988;49.000;21.242;2023-05-22T06:11:33;98643.03;;;24.52;39.52
57574;BME280;68988;49.000;21.242;2023-05-22T06:14:00;98639.03;;;24.55;40.04
57574;BME280;68988;49.000;21.242;2023-05-22T06:16:27;98640.09;;;24.54;40.45
57574;BME280;68988;49.000;21.242;2023-05-22T06:18:52;98636.88;;;24.57;40.70
57574;BME280;68988;49.000;21.242;2023-05-22T06:21:18;98635.25;;;24.56;41.03
57574;BME280;68988;49.000;21.242;2023-05-22T06:23:47;98632.88;;;24.59;41.55
57574;BME280;68988;49.000;21.242;2023-05-22T06:26:13;98635.03;;;24.62;41.32
57574;BME280;68988;49.000;21.242;2023-05-22T06:28:39;98641.19;;;24.63;41.66
57574;BME280;68988;49.000;21.242;2023-05-22T06:31:04;98644.38;;;24.65;42.13
57574;BME280;68988;49.000;21.242;2023-05-22T06:33:30;98647.06;;;24.70;42.10
57574;BME280;68988;49.000;21.242;2023-05-22T06:35:56;98640.34;;;24.73;42.14
57574;BME280;68988;49.000;21.242;2023-05-22T06:38:21;98640.06;;;24.74;42.36
57574;BME280;68988;49.000;21.242;2023-05-22T06:40:47;98632.56;;;24.76;42.46
57574;BME280;68988;49.000;21.242;2023-05-22T06:43:12;98638.72;;;24.82;42.46
57574;BME280;68988;49.000;21.242;2023-05-22T06:45:37;98636.28;;;24.80;42.72
57574;BME280;68988;49.000;21.242;2023-05-22T06:48:03;98626.66;;;24.79;43.12
57574;BME280;68988;49.000;21.242;2023-05-22T06:50:29;98629.84;;;24.87;42.92
57574;BME280;68988;49.000;21.242;2023-05-22T06:52:55;98633.06;;;24.83;43.12
57574;BME280;68988;49.000;21.242;2023-05-22T06:55:21;98636.81;;;24.88;43.04
57574;BME280;68988;49.000;21.242;2023-05-22T06:57:47;98634.66;;;24.90;43.52
57574;BME280;68988;49.000;21.242;2023-05-22T07:00:12;98634.09;;;24.93;43.33
57574;BME280;68988;49.000;21.242;2023-05-22T07:02:38;98624.19;;;24.93;43.45
57574;BME280;68988;49.000;21.242;2023-05-22T07:05:04;98629.56;;;24.93;44.04
57574;BME280;68988;49.000;21.242;2023-05-22T07:07:30;98623.66;;;24.96;44.23
57574;BME280;68988;49.000;21.242;2023-05-22T07:09:55;98630.59;;;24.97;44.33
57574;BME280;68988;49.000;21.242;2023-05-22T07:12:20;98622.31;;;24.94;43.82
57574;BME280;68988;49.000;21.242;2023-05-22T07:14:50;98623.09;;;24.94;43.58
57574;BME280;68988;49.000;21.242;2023-05-22T07:17:15;98619.88;;;24.97;43.28
57574;BME280;68988;49.000;21.242;2023-05-22T07:19:41;98620.97;;;24.96;43.57
57574;BME280;68988;49.000;21.242;2023-05-22T07:22:06;98626.06;;;24.98;43.53
57574;BME280;68988;49.000;21.242;2023-05-22T07:24:32;98625.53;;;25.01;43.54
57574;BME280;68988;49.000;21.242;2023-05-22T07:26:57;98619.06;;;25.02;43.31
57574;BME280;68988;49.000;21.242;2023-05-22T07:29:30;98619.59;;;25.04;43.49
57574;BME280;68988;49.000;21.242;2023-05-22T07:31:56;98613.19;;;24.90;42.56
57574;BME280;68988;49.000;21.242;2023-05-22T07:34:21;98607.59;;;24.86;40.34
57574;BME280;68988;49.000;21.242;2023-05-22T07:36:47;98599.84;;;24.79;39.58
57574;BME280;68988;49.000;21.242;2023-05-22T07:39:12;98608.72;;;24.75;39.57
57574;BME280;68988;49.000;21.242;2023-05-22T07:41:38;98605.75;;;24.71;39.08
57574;BME280;68988;49.000;21.242;2023-05-22T07:44:04;98595.03;;;24.71;39.16
57574;BME280;68988;49.000;21.242;2023-05-22T07:46:30;98597.16;;;24.74;38.69
57574;BME280;68988;49.000;21.242;2023-05-22T07:48:55;98611.94;;;24.66;38.55
57574;BME280;68988;49.000;21.242;2023-05-22T07:51:21;98610.06;;;24.62;38.40
57574;BME280;68988;49.000;21.242;2023-05-22T07:53:46;98604.69;;;24.62;38.15
57574;BME280;68988;49.000;21.242;2023-05-22T07:56:11;98604.19;;;24.60;37.94
57574;BME280;68988;49.000;21.242;2023-05-22T07:58:37;98607.13;;;24.58;37.87
57574;BME280;68988;49.000;21.242;2023-05-22T08:01:04;98609.53;;;24.55;37.55
57574;BME280;68988;49.000;21.242;2023-05-22T08:03:29;98617.59;;;24.55;37.51
57574;BME280;68988;49.000;21.242;2023-05-22T08:05:55;98617.03;;;24.53;37.27
57574;BME280;68988;49.000;21.242;2023-05-22T08:08:20;98618.13;;;24.52;37.11
57574;BME280;68988;49.000;21.242;2023-05-22T08:10:45;98612.75;;;24.52;37.05
57574;BME280;68988;49.000;21.242;2023-05-22T08:13:13;98604.16;;;24.49;37.24
57574;BME280;68988;49.000;21.242;2023-05-22T08:15:39;98608.19;;;24.52;37.48
57574;BME280;68988;49.000;21.242;2023-05-22T08:18:05;98607.38;;;24.46;37.35
57574;BME280;68988;49.000;21.242;2023-05-22T08:20:30;98604.19;;;24.44;37.33
57574;BME280;68988;49.000;21.242;2023-05-22T08:22:56;98603.91;;;24.46;37.52
57574;BME280;68988;49.000;21.242;2023-05-22T08:25:21;98602.03;;;24.52;37.61
57574;BME280;68988;49.000;21.242;2023-05-22T08:27:47;98599.88;;;24.59;37.79
57574;BME280;68988;49.000;21.242;2023-05-22T08:30:12;98588.63;;;24.67;38.09
57574;BME280;68988;49.000;21.242;2023-05-22T08:32:38;98594.22;;;24.71;38.45
57574;BME280;68988;49.000;21.242;2023-05-22T08:35:03;98585.38;;;24.75;38.14
57574;BME280;68988;49.000;21.242;2023-05-22T08:37:29;98584.31;;;24.76;37.95
57574;BME280;68988;49.000;21.242;2023-05-22T08:39:54;98586.97;;;24.76;39.16
57574;BME280;68988;49.000;21.242;2023-05-22T08:42:20;98581.06;;;24.79;38.51
57574;BME280;68988;49.000;21.242;2023-05-22T08:44:46;98582.66;;;24.80;38.81
57574;BME280;68988;49.000;21.242;2023-05-22T08:47:13;98578.38;;;24.84;38.85
57574;BME280;68988;49.000;21.242;2023-05-22T08:49:39;98577.56;;;24.84;38.96
57574;BME280;68988;49.000;21.242;2023-05-22T08:52:11;98589.59;;;24.87;39.04
57574;BME280;68988;49.000;21.242;2023-05-22T08:54:40;98576.19;;;24.87;38.95
57574;BME280;68988;49.000;21.242;2023-05-22T08:57:07;98581.00;;;24.90;39.15
57574;BME280;68988;49.000;21.242;2023-05-22T08:59:35;98589.88;;;24.90;38.92
57574;BME280;68988;49.000;21.242;2023-05-22T09:02:00;98584.78;;;24.89;39.29
57574;BME280;68988;49.000;21.242;2023-05-22T09:04:28;98572.97;;;24.90;39.34
57574;BME280;68988;49.000;21.242;2023-05-22T09:06:53;98574.84;;;24.89;39.44
57574;BME280;68988;49.000;21.242;2023-05-22T09:09:19;98580.47;;;24.93;39.06
57574;BME280;68988;49.000;21.242;2023-05-22T09:11:45;98576.47;;;24.90;39.40
57574;BME280;68988;49.000;21.242;2023-05-22T09:14:10;98574.59;;;24.91;39.51
57574;BME280;68988;49.000;21.242;2023-05-22T09:16:46;98571.88;;;24.96;39.45
57574;BME280;68988;49.000;21.242;2023-05-22T09:19:13;98575.09;;;24.93;39.71
57574;BME280;68988;49.000;21.242;2023-05-22T09:21:39;98584.25;;;24.92;39.62
57574;BME280;68988;49.000;21.242;2023-05-22T09:24:07;98570.28;;;24.90;39.69
57574;BME280;68988;49.000;21.242;2023-05-22T09:26:34;98567.09;;;24.88;39.63
57574;BME280;68988;49.000;21.242;2023-05-22T09:28:59;98561.72;;;24.88;39.59
57574;BME280;68988;49.000;21.242;2023-05-22T09:31:25;98564.41;;;24.88;39.64
57574;BME280;68988;49.000;21.242;2023-05-22T09:33:52;98561.72;;;24.88;39.42
57574;BME280;68988;49.000;21.242;2023-05-22T09:36:17;98570.03;;;24.86;39.32
57574;BME280;68988;49.000;21.242;2023-05-22T09:38:43;98561.47;;;24.84;39.21
57574;BME280;68988;49.000;21.242;2023-05-22T09:41:09;98566.84;;;24.84;39.03
57574;BME280;68988;49.000;21.242;2023-05-22T09:43:34;98563.38;;;24.78;39.31
57574;BME280;68988;49.000;21.242;2023-05-22T09:46:00;98562.31;;;24.79;38.18
57574;BME280;68988;49.000;21.242;2023-05-22T09:48:26;98558.56;;;24.75;37.58
57574;BME280;68988;49.000;21.242;2023-05-22T09:50:56;98562.03;;;24.76;37.45
57574;BME280;68988;49.000;21.242;2023-05-22T09:53:25;98559.63;;;24.74;37.83
57574;BME280;68988;49.000;21.242;2023-05-22T09:55:58;98563.13;;;24.75;36.89
57574;BME280;68988;49.000;21.242;2023-05-22T09:58:25;98551.34;;;24.71;36.82
57574;BME280;68988;49.000;21.242;2023-05-22T10:00:51;98552.94;;;24.72;37.45
57574;BME280;68988;49.000;21.242;2023-05-22T10:03:21;98543.81;;;24.73;37.18
57574;BME280;68988;49.000;21.242;2023-05-22T10:05:51;98545.41;;;24.74;37.23
57574;BME280;68988;49.000;21.242;2023-05-22T10:08:20;98544.31;;;24.80;37.60
57574;BME280;68988;49.000;21.242;2023-05-22T10:10:50;98544.00;;;24.87;37.92
57574;BME280;68988;49.000;21.242;2023-05-22T10:13:18;98539.19;;;24.89;39.55
57574;BME280;68988;49.000;21.242;2023-05-22T10:15:46;98541.31;;;24.92;40.27
57574;BME280;68988;49.000;21.242;2023-05-22T10:18:13;98543.47;;;24.90;39.94
57574;BME280;68988;49.000;21.242;2023-05-22T10:20:39;98523.38;;;24.87;39.80
57574;BME280;68988;49.000;21.242;2023-05-22T10:23:05;98525.50;;;24.90;40.32
57574;BME280;68988;49.000;21.242;2023-05-22T10:25:33;98527.09;;;24.96;40.56
57574;BME280;68988;49.000;21.242;2023-05-22T10:27:59;98523.06;;;24.94;40.91
57574;BME280;68988;49.000;21.242;2023-05-22T10:30:35;98520.34;;;24.99;40.49
57574;BME280;68988;49.000;21.242;2023-05-22T10:33:12;98517.16;;;24.97;40.52
57574;BME280;68988;49.000;21.242;2023-05-22T10:35:55;98519.56;;;24.98;40.80
57574;BME280;68988;49.000;21.242;2023-05-22T10:38:38;98520.91;;;25.01;40.68
57574;BME280;68988;49.000;21.242;2023-05-22T10:41:09;98516.63;;;24.90;40.42
57574;BME280;68988;49.000;21.242;2023-05-22T10:43:40;98513.69;;;24.91;39.98
57574;BME280;68988;49.000;21.242;2023-05-22T10:46:07;98510.25;;;24.86;37.47
57574;BME280;68988;49.000;21.242;2023-05-22T10:48:48;98509.69;;;24.89;38.49
57574;BME280;68988;49.000;21.242;2023-05-22T10:51:20;98506.47;;;24.87;38.79
57574;BME280;68988;49.000;21.242;2023-05-22T10:53:50;98509.69;;;24.89;38.76
57574;BME280;68988;49.000;21.242;2023-05-22T10:56:17;98505.44;;;24.82;37.45
57574;BME280;68988;49.000;21.242;2023-05-22T10:58:45;98511.84;;;24.87;38.21
57574;BME280;68988;49.000;21.242;2023-05-22T11:01:20;98505.16;;;24.84;37.91
57574;BME280;68988;49.000;21.242;2023-05-22T11:06:42;98497.88;;;24.90;38.62
57574;BME280;68988;49.000;21.242;2023-05-22T11:17:31;98483.66;;;24.89;39.23
57574;BME280;68988;49.000;21.242;2023-05-22T11:22:31;98482.31;;;24.92;39.06
57574;BME280;68988;49.000;21.242;2023-05-22T11:24:56;98468.38;;;24.90;39.06
57574;BME280;68988;49.000;21.242;2023-05-22T11:27:22;98468.38;;;24.90;39.32
57574;BME280;68988;49.000;21.242;2023-05-22T11:29:48;98476.94;;;24.92;39.30
57574;BME280;68988;49.000;21.242;2023-05-22T11:32:14;98469.41;;;24.94;38.98
57574;BME280;68988;49.000;21.242;2023-05-22T11:34:48;98470.22;;;24.94;39.14
57574;BME280;68988;49.000;21.242;2023-05-22T11:37:17;98461.09;;;24.95;39.23
57574;BME280;68988;49.000;21.242;2023-05-22T11:39:54;98467.53;;;24.99;39.60
57574;BME280;68988;49.000;21.242;2023-05-22T11:42:20;98466.69;;;24.99;39.71
57574;BME280;68988;49.000;21.242;2023-05-22T11:44:45;98462.72;;;24.96;40.05
57574;BME280;68988;49.000;21.242;2023-05-22T11:47:11;98466.19;;;24.97;40.11
57574;BME280;68988;49.000;21.242;2023-05-22T11:49:36;98460.81;;;24.97;40.18
57574;BME280;68988;49.000;21.242;2023-05-22T11:52:02;98472.06;;;24.99;39.93
57574;BME280;68988;49.000;21.242;2023-05-22T11:54:31;98455.97;;;24.99;40.22
57574;BME280;68988;49.000;21.242;2023-05-22T11:56:57;98463.22;;;24.98;40.22
57574;BME280;68988;49.000;21.242;2023-05-22T11:59:22;98461.34;;;24.99;40.07
57574;BME280;68988;49.000;21.242;2023-05-22T12:01:51;98465.63;;;25.00;40.15
57574;BME280;68988;49.000;21.242;2023-05-22T12:04:16;98462.94;;;25.00;40.50
57574;BME280;68988;49.000;21.242;2023-05-22T12:06:42;98461.34;;;24.99;40.51
57574;BME280;68988;49.000;21.242;2023-05-22T12:09:07;98457.34;;;24.96;40.46
57574;BME280;68988;49.000;21.242;2023-05-22T12:11:34;98461.34;;;24.99;40.64
57574;BME280;68988;49.000;21.242;2023-05-22T12:14:01;98462.94;;;25.00;40.37
57574;BME280;68988;49.000;21.242;2023-05-22T12:16:27;98456.78;;;24.99;40.44
57574;BME280;68988;49.000;21.242;2023-05-22T12:18:52;98459.19;;;25.01;40.56
57574;BME280;68988;49.000;21.242;2023-05-22T12:21:21;98463.47;;;25.02;40.54
57574;BME280;68988;49.000;21.242;2023-05-22T12:23:48;98462.94;;;25.00;40.66
57574;BME280;68988;49.000;21.242;2023-05-22T12:26:14;98453.00;;;25.00;40.69
57574;BME280;68988;49.000;21.242;2023-05-22T12:28:39;98448.19;;;25.02;41.00
57574;BME280;68988;49.000;21.242;2023-05-22T12:31:06;98442.81;;;25.02;40.74
57574;BME280;68988;49.000;21.242;2023-05-22T12:33:31;98450.03;;;25.02;40.94
57574;BME280;68988;49.000;21.242;2023-05-22T12:35:57;98446.28;;;25.03;40.77
57574;BME280;68988;49.000;21.242;2023-05-22T12:38:26;98440.94;;;25.03;41.05
57574;BME280;68988;49.000;21.242;2023-05-22T12:40:53;98442.53;;;25.04;41.04
57574;BME280;68988;49.000;21.242;2023-05-22T12:43:20;98441.44;;;25.05;41.23
57574;BME280;68988;49.000;21.242;2023-05-22T12:45:47;98440.38;;;25.06;41.29
57574;BME280;68988;49.000;21.242;2023-05-22T12:48:12;98437.41;;;25.08;41.18
57574;BME280;68988;49.000;21.242;2023-05-22T12:50:37;98432.56;;;25.10;41.26
57574;BME280;68988;49.000;21.242;2023-05-22T12:53:03;98431.25;;;25.07;41.64
57574;BME280;68988;49.000;21.242;2023-05-22T12:55:28;98432.84;;;25.08;41.45
57574;BME280;68988;49.000;21.242;2023-05-22T12:57:54;98429.09;;;25.09;41.49
57574;BME280;68988;49.000;21.242;2023-05-22T13:00:21;98431.75;;;25.09;42.02
57574;BME280;68988;49.000;21.242;2023-05-22T13:02:47;98427.47;;;25.08;41.56
57574;BME280;68988;49.000;21.242;2023-05-22T13:05:12;98429.09;;;25.09;41.81
57574;BME280;68988;49.000;21.242;2023-05-22T13:07:37;98423.72;;;25.09;41.94
57574;BME280;68988;49.000;21.242;2023-05-22T13:10:03;98423.72;;;25.09;41.70
57574;BME280;68988;49.000;21.242;2023-05-22T13:12:30;98419.13;;;25.10;41.65
57574;BME280;68988;49.000;21.242;2023-05-22T13:14:57;98414.88;;;25.09;41.96
57574;BME280;68988;49.000;21.242;2023-05-22T13:17:22;98416.47;;;25.10;42.04